Kirishima Maru No.5 — JD2506 — position and weather

sailwx.info

Track history (hours):
 
Tides and Currents Weather Stations Pressure Air Temp Water Temp Dewpoint Dewpoint Depression Visibility Wind Speed Wind Dir Waves Ship Positions

Kirishima Maru No.5

Last reported at 2016-Jul-27 19:30 UTC. Time now 2016-Jul-28 04:52 UTC.
Position N 34°01' E 134°58'.

Length 105 m; draft 5.4 m.

Type: Tanker. MMSI: 431000338.

Date/timePositionNaut miles runAvg speedWind from/ knotsBaromVisibWave heightAir tempDewpointWater temp
2016-Jul-27 19:30N 34°01' E 134°58'1614.5
2016-Jul-27 18:23N 34°17' E 134°58'1214.0
2016-Jul-27 17:32N 34°29' E 135°02'8 8.4
2016-Jul-27 16:33N 34°36' E 134°56'4 0.1
2016-Jul-26 00:30N 34°37' E 135°02'1010.8
2016-Jul-25 23:33N 34°27' E 135°03'1313.1
2016-Jul-25 22:33N 34°14' E 134°59'24311.3
2016-Jul-25 01:06N 34°49' E 139°51'914.4
2016-Jul-25 00:29N 34°52' E 140°00'1414.5
2016-Jul-24 23:32N 34°59' E 140°15'2014.1
2016-Jul-24 22:09N 35°13' E 140°32'914.6
2016-Jul-24 21:31N 35°20' E 140°39'1414.2
2016-Jul-24 20:30N 35°30' E 140°52'2 0.0
2016-Jul-22 20:20N 35°30' E 140°49'2914.1
2016-Jul-22 18:19N 35°08' E 140°28'1213.6
2016-Jul-22 17:27N 34°59' E 140°17'1313.7
2016-Jul-22 16:31N 34°53' E 140°04'1413.6
2016-Jul-22 15:31N 34°49' E 139°48'24312.0
2016-Jul-21 19:18N 34°05' E 134°58'1316.9
2016-Jul-21 18:33N 34°18' E 134°58'1615.8
2016-Jul-21 17:33N 34°33' E 135°02'6 0.1
2016-Jul-20 00:14N 34°36' E 134°56'812.3
2016-Jul-19 23:33N 34°33' E 135°05'1514.6
2016-Jul-19 22:30N 34°18' E 134°60'1314.2
2016-Jul-19 21:33N 34°05' E 134°59'23511.7
2016-Jul-19 01:29N 34°44' E 139°40'1514.3
2016-Jul-19 00:26N 34°50' E 139°56'1214.2
2016-Jul-18 23:33N 34°57' E 140°09'3213.4
2016-Jul-18 21:12N 35°18' E 140°38'1413.1
2016-Jul-18 20:09N 35°29' E 140°48'2313.4
2016-Jul-18 18:27N 35°50' E 140°59'1314.4
2016-Jul-18 17:33N 36°03' E 140°59'  
Track history (hours):
 
Tides and Currents Weather Stations Pressure Air Temp Water Temp Dewpoint Dewpoint Depression Visibility Wind Speed Wind Dir Waves Ship Positions

Kirishima Maru No.5

Last reported at 2016-Jul-27 19:30 UTC. Time now 2016-Jul-28 04:52 UTC.
Position N 34°01' E 134°58'.

Length 105 m; draft 5.4 m.

Type: Tanker. MMSI: 431000338.

Date/timePositionNaut miles runAvg speedWind from/ knotsBaromVisibWave heightAir tempDewpointWater temp
2016-Jul-27 19:30N 34°01' E 134°58'1614.5
2016-Jul-27 18:23N 34°17' E 134°58'1214.0
2016-Jul-27 17:32N 34°29' E 135°02'8 8.4
2016-Jul-27 16:33N 34°36' E 134°56'4 0.1
2016-Jul-26 00:30N 34°37' E 135°02'1010.8
2016-Jul-25 23:33N 34°27' E 135°03'1313.1
2016-Jul-25 22:33N 34°14' E 134°59'24311.3
2016-Jul-25 01:06N 34°49' E 139°51'914.4
2016-Jul-25 00:29N 34°52' E 140°00'1414.5
2016-Jul-24 23:32N 34°59' E 140°15'2014.1
2016-Jul-24 22:09N 35°13' E 140°32'914.6
2016-Jul-24 21:31N 35°20' E 140°39'1414.2
2016-Jul-24 20:30N 35°30' E 140°52'2 0.0
2016-Jul-22 20:20N 35°30' E 140°49'2914.1
2016-Jul-22 18:19N 35°08' E 140°28'1213.6
2016-Jul-22 17:27N 34°59' E 140°17'1313.7
2016-Jul-22 16:31N 34°53' E 140°04'1413.6
2016-Jul-22 15:31N 34°49' E 139°48'24312.0
2016-Jul-21 19:18N 34°05' E 134°58'1316.9
2016-Jul-21 18:33N 34°18' E 134°58'1615.8
2016-Jul-21 17:33N 34°33' E 135°02'6 0.1
2016-Jul-20 00:14N 34°36' E 134°56'812.3
2016-Jul-19 23:33N 34°33' E 135°05'1514.6
2016-Jul-19 22:30N 34°18' E 134°60'1314.2
2016-Jul-19 21:33N 34°05' E 134°59'23511.7
2016-Jul-19 01:29N 34°44' E 139°40'1514.3
2016-Jul-19 00:26N 34°50' E 139°56'1214.2
2016-Jul-18 23:33N 34°57' E 140°09'3213.4
2016-Jul-18 21:12N 35°18' E 140°38'1413.1
2016-Jul-18 20:09N 35°29' E 140°48'2313.4
2016-Jul-18 18:27N 35°50' E 140°59'1314.4
2016-Jul-18 17:33N 36°03' E 140°59'  

Dump ship's entire track history